Time;durP1;ratioP1;P1;durP2;ratioP2;P2;SDS_P1;SDS_P2;PMS_P1;PMS_P2;Temp;Humidity;BMP_temperature;BMP_pressure;BME280_temperature;BME280_humidity;BME280_pressure;Samples;Min_cycle;Max_cycle;Signal;HPM_P1;HPM_P2
2022/06/13 00:00:47;;;;;;;5.53;5.00;;;;;;;;;;4935303;29;20481;-66
2022/06/13 00:03:13;;;;;;;5.73;5.33;;;;;;;;;;4936192;29;20414;-67
2022/06/13 00:05:39;;;;;;;5.83;5.27;;;;;;;;;;4936587;29;20416;-66
2022/06/13 00:08:05;;;;;;;5.87;5.23;;;;;;;;;;4936516;29;20405;-66
2022/06/13 00:10:31;;;;;;;5.27;4.87;;;;;;;;;;4936448;29;20428;-67
2022/06/13 00:12:57;;;;;;;6.57;5.00;;;;;;;;;;4936512;29;20410;-66
2022/06/13 00:15:23;;;;;;;5.20;4.80;;;;;;;;;;4936392;29;20473;-66
2022/06/13 00:17:49;;;;;;;5.03;4.60;;;;;;;;;;4936381;29;20423;-66
2022/06/13 00:20:15;;;;;;;5.33;4.93;;;;;;;;;;4936378;29;20480;-67
2022/06/13 00:22:41;;;;;;;5.53;5.00;;;;;;;;;;4936335;29;20407;-66
2022/06/13 00:25:08;;;;;;;7.33;4.83;;;;;;;;;;4936258;29;20428;-66
2022/06/13 00:27:34;;;;;;;5.67;5.27;;;;;;;;;;4935061;29;20900;-66
2022/06/13 00:30:00;;;;;;;5.13;4.50;;;;;;;;;;4936354;29;20416;-66
2022/06/13 00:32:26;;;;;;;5.57;5.17;;;;;;;;;;4936082;29;20468;-66
2022/06/13 00:34:52;;;;;;;5.90;5.27;;;;;;;;;;4936173;29;20421;-66
2022/06/13 00:37:18;;;;;;;5.43;5.03;;;;;;;;;;4936201;29;20419;-66
2022/06/13 00:39:44;;;;;;;5.23;4.97;;;;;;;;;;4936141;29;20468;-66
2022/06/13 00:42:10;;;;;;;8.40;5.20;;;;;;;;;;4936110;29;20409;-66
2022/06/13 00:44:38;;;;;;;5.50;5.20;;;;;;;;;;4934909;29;20433;-66
2022/06/13 00:47:04;;;;;;;4.53;4.30;;;;;;;;;;4936091;29;20500;-66
2022/06/13 00:49:39;;;;;;;6.10;5.60;;;;;;;;;;4934877;29;20487;-66
2022/06/13 00:52:09;;;;;;;18.13;5.50;;;;;;;;;;4936079;29;20837;-66
2022/06/13 00:54:36;;;;;;;7.60;4.93;;;;;;;;;;4934804;29;20508;-66
2022/06/13 00:57:03;;;;;;;5.00;4.67;;;;;;;;;;4936087;29;20412;-66
2022/06/13 00:59:31;;;;;;;4.97;4.57;;;;;;;;;;4935979;29;20964;-66
2022/06/13 01:01:58;;;;;;;4.57;4.17;;;;;;;;;;4936045;29;20421;-67
2022/06/13 01:04:24;;;;;;;6.00;5.50;;;;;;;;;;4936006;29;20480;-67
2022/06/13 01:06:51;;;;;;;6.27;5.70;;;;;;;;;;4935986;29;20480;-66
2022/06/13 01:09:19;;;;;;;6.20;5.93;;;;;;;;;;4935844;29;20968;-65
2022/06/13 01:11:49;;;;;;;8.83;6.10;;;;;;;;;;4935958;29;20933;-66
2022/06/13 01:14:18;;;;;;;7.60;5.77;;;;;;;;;;4936503;29;20907;-65
2022/06/13 01:17:03;;;;;;;5.77;5.20;;;;;;;;;;4939619;29;20417;-67
2022/06/13 01:19:28;;;;;;;6.67;6.10;;;;;;;;;;4939465;29;20935;-66
2022/06/13 01:22:06;;;;;;;6.23;5.60;;;;;;;;;;4939554;29;20416;-66
2022/06/13 01:24:32;;;;;;;6.50;5.80;;;;;;;;;;4939419;29;20464;-66
2022/06/13 01:27:17;;;;;;;6.00;5.70;;;;;;;;;;4939433;29;20416;-66
2022/06/13 01:29:43;;;;;;;6.53;6.03;;;;;;;;;;4939322;29;20409;-66
2022/06/13 01:32:12;;;;;;;6.43;6.03;;;;;;;;;;4939077;29;20474;-66
2022/06/13 01:34:47;;;;;;;6.60;5.87;;;;;;;;;;4939321;29;20415;-65
2022/06/13 01:37:37;;;;;;;7.57;6.07;;;;;;;;;;4939186;29;20445;-66
2022/06/13 01:40:23;;;;;;;6.50;6.10;;;;;;;;;;4939011;29;20510;-67
2022/06/13 01:43:28;;;;;;;7.70;7.00;;;;;;;;;;4939083;29;20472;-66
2022/06/13 01:46:01;;;;;;;11.03;6.83;;;;;;;;;;4899148;29;20516;-66
2022/06/13 01:48:32;;;;;;;8.30;7.60;;;;;;;;;;4918025;29;20439;-65
2022/06/13 01:51:22;;;;;;;13.77;7.27;;;;;;;;;;4938892;29;20408;-66
2022/06/13 01:54:01;;;;;;;9.73;7.90;;;;;;;;;;4930305;29;20451;-66
2022/06/13 01:56:30;;;;;;;8.40;7.60;;;;;;;;;;4939040;29;20434;-66
2022/06/13 01:59:06;;;;;;;10.13;7.83;;;;;;;;;;4938738;29;20436;-66
2022/06/13 02:01:36;;;;;;;10.37;9.03;;;;;;;;;;4938736;29;20858;-66
2022/06/13 02:04:08;;;;;;;14.40;9.47;;;;;;;;;;4938648;29;20831;-66
2022/06/13 02:06:35;;;;;;;10.27;9.30;;;;;;;;;;4937399;29;20439;-66
2022/06/13 02:09:06;;;;;;;11.87;8.27;;;;;;;;;;4938801;29;20420;-65
2022/06/13 02:11:34;;;;;;;9.37;8.37;;;;;;;;;;4938546;29;20429;-66
2022/06/13 02:14:11;;;;;;;9.93;8.90;;;;;;;;;;4938481;29;20447;-66
2022/06/13 02:17:07;;;;;;;12.63;8.93;;;;;;;;;;4938475;29;20427;-65
2022/06/13 02:19:35;;;;;;;11.43;9.03;;;;;;;;;;4925939;29;20783;-66
2022/06/13 02:22:05;;;;;;;9.83;8.07;;;;;;;;;;4938463;29;20832;-67
2022/06/13 02:24:34;;;;;;;10.53;8.73;;;;;;;;;;4937046;29;20420;-67
2022/06/13 02:27:01;;;;;;;8.33;7.50;;;;;;;;;;4937914;29;20810;-67
2022/06/13 02:29:34;;;;;;;16.43;8.43;;;;;;;;;;4938164;29;20951;-67
2022/06/13 02:32:09;;;;;;;9.13;8.13;;;;;;;;;;4938039;29;20466;-67
2022/06/13 02:34:40;;;;;;;11.17;7.70;;;;;;;;;;4938215;29;20509;-67
2022/06/13 02:37:10;;;;;;;9.67;8.37;;;;;;;;;;4938084;29;20444;-67
2022/06/13 02:39:39;;;;;;;9.20;8.30;;;;;;;;;;4937932;29;20464;-67
2022/06/13 02:42:11;;;;;;;15.23;8.47;;;;;;;;;;4937992;29;20511;-67
2022/06/13 02:44:45;;;;;;;8.33;7.57;;;;;;;;;;4937883;29;20895;-67
2022/06/13 02:47:35;;;;;;;9.40;8.40;;;;;;;;;;4937912;29;20424;-67
2022/06/13 02:50:08;;;;;;;8.57;7.67;;;;;;;;;;4930251;29;20452;-67
2022/06/13 02:52:42;;;;;;;12.07;8.50;;;;;;;;;;4937856;29;20436;-67
2022/06/13 02:55:09;;;;;;;13.17;8.83;;;;;;;;;;4937692;29;20932;-67
2022/06/13 02:57:38;;;;;;;8.97;8.07;;;;;;;;;;4937736;29;20421;-67
2022/06/13 03:00:22;;;;;;;10.80;8.57;;;;;;;;;;4937611;29;20980;-67
2022/06/13 03:03:04;;;;;;;11.80;8.80;;;;;;;;;;4937870;29;20436;-67
2022/06/13 03:05:30;;;;;;;13.53;9.70;;;;;;;;;;4936330;29;20439;-66
2022/06/13 03:08:03;;;;;;;10.60;8.43;;;;;;;;;;4937591;29;20832;-67
2022/06/13 03:10:33;;;;;;;9.57;8.73;;;;;;;;;;4937465;29;20423;-67
2022/06/13 03:12:59;;;;;;;13.67;8.70;;;;;;;;;;4937404;29;20425;-67
2022/06/13 03:15:40;;;;;;;14.43;9.10;;;;;;;;;;4936093;29;20526;-66
2022/06/13 03:18:10;;;;;;;9.83;7.90;;;;;;;;;;4936101;29;20422;-67
2022/06/13 03:20:55;;;;;;;10.00;9.10;;;;;;;;;;4937283;29;20990;-66
2022/06/13 03:23:28;;;;;;;13.10;8.10;;;;;;;;;;4937279;29;20414;-67
2022/06/13 03:25:58;;;;;;;9.27;7.57;;;;;;;;;;4937223;29;20904;-68
2022/06/13 03:28:27;;;;;;;10.03;7.43;;;;;;;;;;4937197;29;20409;-66
2022/06/13 03:30:58;;;;;;;5.67;5.17;;;;;;;;;;4937151;29;20435;-66
2022/06/13 03:33:40;;;;;;;7.90;6.80;;;;;;;;;;4936939;29;20982;-65
2022/06/13 03:36:09;;;;;;;9.00;6.70;;;;;;;;;;4937137;29;20399;-67
2022/06/13 03:38:37;;;;;;;6.87;6.17;;;;;;;;;;4935091;29;20455;-67
2022/06/13 03:41:04;;;;;;;7.00;6.47;;;;;;;;;;4936927;29;20547;-67
2022/06/13 03:43:37;;;;;;;9.50;6.80;;;;;;;;;;4936931;29;20906;-67
2022/06/13 03:46:02;;;;;;;7.13;6.57;;;;;;;;;;4936994;29;20439;-67
2022/06/13 03:48:32;;;;;;;7.63;5.70;;;;;;;;;;4936823;29;20766;-68
2022/06/13 03:51:03;;;;;;;6.77;6.23;;;;;;;;;;4935902;29;20429;-67
2022/06/13 03:53:40;;;;;;;6.13;5.77;;;;;;;;;;4936733;29;20404;-67
2022/06/13 03:56:09;;;;;;;7.70;6.83;;;;;;;;;;4936698;29;20411;-66
2022/06/13 03:58:40;;;;;;;9.53;7.70;;;;;;;;;;4935443;29;20759;-67
2022/06/13 04:01:07;;;;;;;8.50;6.40;;;;;;;;;;4936573;29;21070;-67
2022/06/13 04:03:33;;;;;;;6.83;5.83;;;;;;;;;;4936704;29;20476;-67
2022/06/13 04:06:01;;;;;;;8.13;4.93;;;;;;;;;;4936727;29;20419;-67
2022/06/13 04:08:29;;;;;;;7.80;5.30;;;;;;;;;;4935249;29;20931;-67
2022/06/13 04:10:57;;;;;;;6.50;5.17;;;;;;;;;;4936627;29;20542;-67
2022/06/13 04:13:32;;;;;;;8.30;4.73;;;;;;;;;;4936547;29;20420;-68
2022/06/13 04:16:16;;;;;;;7.40;4.20;;;;;;;;;;4936523;29;20895;-67
2022/06/13 04:18:48;;;;;;;11.90;4.00;;;;;;;;;;4936425;29;20407;-67
2022/06/13 04:21:33;;;;;;;27.80;5.00;;;;;;;;;;4936407;29;20982;-68
2022/06/13 04:24:15;;;;;;;4.70;4.50;;;;;;;;;;4936368;29;20423;-67
2022/06/13 04:26:41;;;;;;;6.33;4.10;;;;;;;;;;4936377;29;20438;-68
2022/06/13 04:29:12;;;;;;;4.40;4.20;;;;;;;;;;4935150;29;20859;-66
2022/06/13 04:31:39;;;;;;;5.83;4.70;;;;;;;;;;4936157;29;20469;-67
2022/06/13 04:34:13;;;;;;;7.17;4.07;;;;;;;;;;4935002;29;20813;-68
2022/06/13 04:36:40;;;;;;;8.13;3.73;;;;;;;;;;4934943;29;20422;-67
2022/06/13 04:39:07;;;;;;;8.20;3.87;;;;;;;;;;4936117;29;20429;-67
2022/06/13 04:41:36;;;;;;;6.23;3.90;;;;;;;;;;4936207;29;20434;-68
2022/06/13 04:44:03;;;;;;;8.33;3.93;;;;;;;;;;4936210;29;20429;-68
2022/06/13 04:46:30;;;;;;;4.63;3.30;;;;;;;;;;4936115;29;20430;-67
2022/06/13 04:48:58;;;;;;;7.00;3.17;;;;;;;;;;4938080;29;20754;-67
2022/06/13 04:51:29;;;;;;;7.30;2.60;;;;;;;;;;4940075;29;20468;-68
2022/06/13 04:53:59;;;;;;;4.77;2.77;;;;;;;;;;4939916;29;20430;-67
2022/06/13 04:56:25;;;;;;;7.43;3.10;;;;;;;;;;4938702;29;20963;-67
2022/06/13 04:58:53;;;;;;;4.93;3.00;;;;;;;;;;4939893;29;20423;-67
2022/06/13 05:01:22;;;;;;;3.80;3.50;;;;;;;;;;4939786;29;20556;-68
2022/06/13 05:03:49;;;;;;;3.90;3.57;;;;;;;;;;4939730;29;20410;-67
2022/06/13 05:06:22;;;;;;;3.50;3.20;;;;;;;;;;4939833;29;20506;-69
2022/06/13 05:08:52;;;;;;;4.40;3.50;;;;;;;;;;4939732;29;20855;-68
2022/06/13 05:11:22;;;;;;;7.10;3.80;;;;;;;;;;4939685;29;20418;-68
2022/06/13 05:13:51;;;;;;;7.70;3.83;;;;;;;;;;4939957;29;20417;-67
2022/06/13 05:16:42;;;;;;;4.23;3.50;;;;;;;;;;4939879;29;20481;-68
2022/06/13 05:19:20;;;;;;;7.93;3.83;;;;;;;;;;4939488;29;20469;-67
2022/06/13 05:21:55;;;;;;;4.07;3.43;;;;;;;;;;4939581;29;20414;-68
2022/06/13 05:24:51;;;;;;;8.10;4.30;;;;;;;;;;4939431;29;20492;-69
2022/06/13 05:27:17;;;;;;;4.83;4.07;;;;;;;;;;4887850;29;20446;-68
2022/06/13 05:29:43;;;;;;;9.37;4.67;;;;;;;;;;4939370;29;20432;-68
2022/06/13 05:32:10;;;;;;;3.87;3.67;;;;;;;;;;4939227;29;20560;-69
2022/06/13 05:34:38;;;;;;;7.07;3.97;;;;;;;;;;4939247;29;20450;-68
2022/06/13 05:37:05;;;;;;;5.17;3.87;;;;;;;;;;4939100;29;20736;-68
2022/06/13 05:39:31;;;;;;;3.57;3.37;;;;;;;;;;4939128;29;20470;-69
2022/06/13 05:41:57;;;;;;;4.40;3.23;;;;;;;;;;4939157;29;20458;-69
2022/06/13 05:44:23;;;;;;;7.27;4.10;;;;;;;;;;4939095;29;20417;-70
2022/06/13 05:46:49;;;;;;;3.00;2.90;;;;;;;;;;4939168;29;20420;-69
2022/06/13 05:49:17;;;;;;;14.63;3.80;;;;;;;;;;4939148;29;20898;-70
2022/06/13 05:51:43;;;;;;;3.73;2.90;;;;;;;;;;4939050;29;20411;-69
2022/06/13 05:54:12;;;;;;;4.20;2.73;;;;;;;;;;4938875;29;20422;-69
2022/06/13 05:56:39;;;;;;;6.43;2.90;;;;;;;;;;4938924;29;20429;-67
2022/06/13 05:59:05;;;;;;;13.50;2.80;;;;;;;;;;4938815;29;20536;-67
2022/06/13 06:01:34;;;;;;;3.27;2.90;;;;;;;;;;4937923;29;20550;-67
2022/06/13 06:04:00;;;;;;;2.67;2.40;;;;;;;;;;4939009;29;20403;-67
2022/06/13 06:06:27;;;;;;;4.33;2.40;;;;;;;;;;4938654;29;20474;-67
2022/06/13 06:08:56;;;;;;;8.53;3.03;;;;;;;;;;4937382;29;20434;-67
2022/06/13 06:11:23;;;;;;;5.67;2.70;;;;;;;;;;4937346;29;20423;-67
2022/06/13 06:13:49;;;;;;;2.93;2.73;;;;;;;;;;4938613;29;20423;-68
2022/06/13 06:16:16;;;;;;;7.87;2.63;;;;;;;;;;4937280;29;20784;-68
2022/06/13 06:18:43;;;;;;;6.93;2.80;;;;;;;;;;4938494;29;20407;-68
2022/06/13 06:21:09;;;;;;;3.97;2.37;;;;;;;;;;4938361;29;20837;-67
2022/06/13 06:23:36;;;;;;;7.60;3.47;;;;;;;;;;4938334;29;20770;-67
2022/06/13 06:26:03;;;;;;;2.90;2.70;;;;;;;;;;4938385;29;20818;-69
2022/06/13 06:28:29;;;;;;;6.80;2.47;;;;;;;;;;4938272;29;20475;-67
2022/06/13 06:30:57;;;;;;;4.23;2.77;;;;;;;;;;4938293;29;20419;-67
2022/06/13 06:33:23;;;;;;;7.13;2.77;;;;;;;;;;4938017;29;20478;-67
2022/06/13 06:35:51;;;;;;;3.83;2.87;;;;;;;;;;4938174;29;20411;-67
2022/06/13 06:38:17;;;;;;;4.53;2.93;;;;;;;;;;4938318;29;20405;-68
2022/06/13 06:40:43;;;;;;;2.90;2.70;;;;;;;;;;4938009;29;20478;-67
2022/06/13 06:43:09;;;;;;;9.43;3.43;;;;;;;;;;4937998;29;20404;-67
2022/06/13 06:45:36;;;;;;;5.60;2.67;;;;;;;;;;4938050;29;21008;-67
2022/06/13 06:48:02;;;;;;;6.67;3.20;;;;;;;;;;4937971;29;20419;-67
2022/06/13 06:50:30;;;;;;;3.53;3.27;;;;;;;;;;4937925;29;20455;-66
2022/06/13 06:52:56;;;;;;;3.93;3.17;;;;;;;;;;4936613;29;20428;-67
2022/06/13 07:00:54;;;;;;;4.40;3.50;;;;;;;;;;4923518;29;20478;-66
2022/06/13 07:03:20;;;;;;;8.73;3.50;;;;;;;;;;4936418;29;20436;-67
2022/06/13 07:05:46;;;;;;;4.87;2.80;;;;;;;;;;4937561;29;20443;-68
2022/06/13 07:08:13;;;;;;;5.70;3.17;;;;;;;;;;4937646;29;20936;-66
2022/06/13 07:10:39;;;;;;;6.70;3.10;;;;;;;;;;4937473;29;20420;-66
2022/06/13 07:13:05;;;;;;;5.83;3.27;;;;;;;;;;4936483;29;20415;-66
2022/06/13 07:15:31;;;;;;;5.03;3.60;;;;;;;;;;4936159;29;20790;-66
2022/06/13 07:17:57;;;;;;;3.70;3.40;;;;;;;;;;4937357;29;20423;-66
2022/06/13 07:20:23;;;;;;;4.33;3.27;;;;;;;;;;4937366;29;20564;-67
2022/06/13 07:22:51;;;;;;;6.03;2.67;;;;;;;;;;4937335;29;20416;-67
2022/06/13 07:25:19;;;;;;;6.63;3.17;;;;;;;;;;4935972;29;20524;-67
2022/06/13 07:27:45;;;;;;;4.77;3.20;;;;;;;;;;4937234;29;20411;-66
2022/06/13 07:30:12;;;;;;;9.63;3.47;;;;;;;;;;4937210;29;20416;-67
2022/06/13 07:32:39;;;;;;;11.20;3.70;;;;;;;;;;4937082;29;20866;-66
2022/06/13 07:35:05;;;;;;;6.00;2.97;;;;;;;;;;4937141;29;20431;-68
2022/06/13 07:40:16;;;;;;;5.03;3.57;;;;;;;;;;4937112;29;21014;-67
2022/06/13 07:42:47;;;;;;;4.00;3.70;;;;;;;;;;4936961;29;20440;-67
2022/06/13 07:45:15;;;;;;;6.63;3.87;;;;;;;;;;4936900;29;20432;-67
2022/06/13 07:47:42;;;;;;;5.57;3.50;;;;;;;;;;4935632;29;20423;-66
2022/06/13 07:50:08;;;;;;;9.23;3.17;;;;;;;;;;4936880;29;20912;-68
2022/06/13 07:52:35;;;;;;;7.43;3.37;;;;;;;;;;4936905;29;20413;-67
2022/06/13 07:55:01;;;;;;;5.53;2.80;;;;;;;;;;4936694;29;20927;-66
2022/06/13 07:57:27;;;;;;;6.40;3.43;;;;;;;;;;4936647;29;20493;-67
2022/06/13 07:59:53;;;;;;;4.43;3.23;;;;;;;;;;4936593;29;20464;-67
2022/06/13 08:02:19;;;;;;;9.60;3.20;;;;;;;;;;4919805;29;20555;-66
2022/06/13 08:04:45;;;;;;;6.73;3.67;;;;;;;;;;4936544;29;20962;-68
2022/06/13 08:07:13;;;;;;;9.67;3.80;;;;;;;;;;4936512;29;20430;-67
2022/06/13 08:09:39;;;;;;;4.53;3.57;;;;;;;;;;4936708;29;20432;-66
2022/06/13 08:12:06;;;;;;;6.07;3.10;;;;;;;;;;4936493;29;20421;-66
2022/06/13 08:14:32;;;;;;;4.27;3.00;;;;;;;;;;4936653;29;20442;-66
2022/06/13 08:16:58;;;;;;;8.10;3.23;;;;;;;;;;4936406;29;20911;-66
2022/06/13 08:19:24;;;;;;;4.07;3.30;;;;;;;;;;4936344;29;20412;-67
2022/06/13 08:21:51;;;;;;;6.80;3.30;;;;;;;;;;4936344;29;20896;-67
2022/06/13 08:24:18;;;;;;;5.70;3.30;;;;;;;;;;4935933;29;20424;-67
2022/06/13 08:26:44;;;;;;;4.40;2.40;;;;;;;;;;4936185;29;20504;-66
2022/06/13 08:29:10;;;;;;;8.37;3.10;;;;;;;;;;4936317;29;20420;-67
2022/06/13 08:31:37;;;;;;;5.87;3.20;;;;;;;;;;4936072;29;20502;-66
2022/06/13 08:34:04;;;;;;;7.30;2.77;;;;;;;;;;4936212;29;20485;-66
2022/06/13 08:36:30;;;;;;;11.90;3.30;;;;;;;;;;4936238;29;20414;-66
2022/06/13 08:38:56;;;;;;;7.97;3.30;;;;;;;;;;4936223;29;20426;-66
2022/06/13 08:41:21;;;;;;;6.83;3.23;;;;;;;;;;4936136;29;20500;-67
2022/06/13 08:43:58;;;;;;;5.77;3.10;;;;;;;;;;4936057;29;20423;-66
2022/06/13 08:46:46;;;;;;;9.63;3.13;;;;;;;;;;4936242;29;20415;-67
2022/06/13 08:49:19;;;;;;;4.47;3.17;;;;;;;;;;4936126;29;20422;-66
2022/06/13 08:51:48;;;;;;;7.90;3.60;;;;;;;;;;4936025;29;20453;-66
2022/06/13 08:54:20;;;;;;;5.40;2.67;;;;;;;;;;4936040;29;20443;-68
2022/06/13 08:56:47;;;;;;;5.97;3.00;;;;;;;;;;4936123;29;20440;-68
2022/06/13 08:59:23;;;;;;;3.50;3.20;;;;;;;;;;4935991;29;20471;-67
2022/06/13 09:01:54;;;;;;;5.80;2.97;;;;;;;;;;4936004;29;20429;-67
2022/06/13 09:04:20;;;;;;;5.87;2.67;;;;;;;;;;4936144;29;20770;-68
2022/06/13 09:06:49;;;;;;;4.23;2.67;;;;;;;;;;4935915;29;20509;-69
2022/06/13 09:09:21;;;;;;;2.50;2.30;;;;;;;;;;4935877;29;20431;-67
2022/06/13 09:11:47;;;;;;;7.17;3.23;;;;;;;;;;4935900;29;20412;-67
2022/06/13 09:14:39;;;;;;;2.80;2.23;;;;;;;;;;4935903;29;20942;-66
2022/06/13 09:17:13;;;;;;;3.80;2.10;;;;;;;;;;4933160;29;20450;-67
2022/06/13 09:19:45;;;;;;;4.40;2.23;;;;;;;;;;4936097;29;20556;-66
2022/06/13 09:22:21;;;;;;;4.70;3.00;;;;;;;;;;4935928;29;20410;-67
2022/06/13 09:25:00;;;;;;;2.60;2.40;;;;;;;;;;4935839;29;20926;-66
2022/06/13 09:27:30;;;;;;;7.57;2.20;;;;;;;;;;4935829;29;20429;-67
2022/06/13 09:30:01;;;;;;;4.50;3.33;;;;;;;;;;4935737;29;20483;-65
2022/06/13 09:32:32;;;;;;;4.90;2.90;;;;;;;;;;4935649;29;20481;-67
2022/06/13 09:35:21;;;;;;;2.63;2.50;;;;;;;;;;4935869;29;20404;-68
2022/06/13 09:37:56;;;;;;;2.13;2.00;;;;;;;;;;4931745;29;20474;-67
2022/06/13 09:40:41;;;;;;;5.60;2.73;;;;;;;;;;4939121;29;20470;-66
2022/06/13 09:43:16;;;;;;;4.17;2.43;;;;;;;;;;4939156;29;20411;-68
2022/06/13 09:46:01;;;;;;;8.00;2.53;;;;;;;;;;4939031;29;20406;-67
2022/06/13 09:48:45;;;;;;;4.73;2.33;;;;;;;;;;4939038;29;20419;-67
2022/06/13 09:51:11;;;;;;;2.63;2.27;;;;;;;;;;4937644;29;20418;-66
2022/06/13 09:53:52;;;;;;;3.07;2.70;;;;;;;;;;4937575;29;20477;-68
2022/06/13 09:56:38;;;;;;;3.70;2.57;;;;;;;;;;4938848;29;20453;-68
2022/06/13 09:59:10;;;;;;;4.03;2.40;;;;;;;;;;4928794;29;20515;-68
2022/06/13 10:01:39;;;;;;;5.17;2.33;;;;;;;;;;4938685;29;20500;-67
2022/06/13 10:04:13;;;;;;;3.90;2.43;;;;;;;;;;4938715;29;20431;-68
2022/06/13 10:06:52;;;;;;;7.23;2.30;;;;;;;;;;4938749;29;20431;-66
2022/06/13 10:09:28;;;;;;;2.90;2.10;;;;;;;;;;4938552;29;20497;-67
2022/06/13 10:11:59;;;;;;;4.43;2.30;;;;;;;;;;4938625;29;20419;-67
2022/06/13 10:14:40;;;;;;;3.70;2.13;;;;;;;;;;4938607;29;20408;-68
2022/06/13 10:17:22;;;;;;;3.03;2.33;;;;;;;;;;4938483;29;20419;-67
2022/06/13 10:20:06;;;;;;;3.17;2.30;;;;;;;;;;4938417;29;20463;-68
2022/06/13 10:22:38;;;;;;;2.83;2.60;;;;;;;;;;4938380;29;20427;-66
2022/06/13 10:25:07;;;;;;;6.70;2.20;;;;;;;;;;4938394;29;20515;-67
2022/06/13 10:27:33;;;;;;;3.60;2.10;;;;;;;;;;4938328;29;20859;-67
2022/06/13 10:30:11;;;;;;;2.93;2.43;;;;;;;;;;4938550;29;20413;-67
2022/06/13 10:32:52;;;;;;;3.00;2.13;;;;;;;;;;4938149;29;20472;-66
2022/06/13 10:35:21;;;;;;;5.33;2.43;;;;;;;;;;4937018;29;20860;-67
2022/06/13 10:37:53;;;;;;;2.90;2.30;;;;;;;;;;4938231;29;20424;-67
2022/06/13 10:40:19;;;;;;;3.60;2.30;;;;;;;;;;4936792;29;20480;-67
2022/06/13 10:42:45;;;;;;;4.10;2.57;;;;;;;;;;4938086;29;21276;-66
2022/06/13 10:45:13;;;;;;;2.40;1.93;;;;;;;;;;4938159;29;20418;-66
2022/06/13 10:47:45;;;;;;;4.00;2.90;;;;;;;;;;4937819;29;20476;-67
2022/06/13 10:50:18;;;;;;;2.30;2.10;;;;;;;;;;4936727;29;20772;-67
2022/06/13 10:52:46;;;;;;;4.90;2.50;;;;;;;;;;4937960;29;20473;-66
2022/06/13 10:55:14;;;;;;;9.37;2.47;;;;;;;;;;4937746;29;20454;-66
2022/06/13 10:57:45;;;;;;;3.00;2.50;;;;;;;;;;4937775;29;20476;-66
2022/06/13 11:00:11;;;;;;;2.33;2.10;;;;;;;;;;4937740;29;20459;-67
2022/06/13 11:02:37;;;;;;;2.30;1.83;;;;;;;;;;4936348;29;20427;-66
2022/06/13 11:05:05;;;;;;;2.67;2.10;;;;;;;;;;4937492;29;20404;-66
2022/06/13 11:07:33;;;;;;;3.57;2.33;;;;;;;;;;4937579;29;20426;-67
2022/06/13 11:09:59;;;;;;;4.93;2.03;;;;;;;;;;4936241;29;20431;-66
2022/06/13 11:12:38;;;;;;;2.10;1.97;;;;;;;;;;4937445;29;20510;-66
2022/06/13 11:23:48;;;;;;;2.90;2.57;;;;;;;;;;4937381;29;20526;-66
2022/06/13 11:28:59;;;;;;;5.20;2.10;;;;;;;;;;4937218;29;20914;-66
2022/06/13 11:31:26;;;;;;;4.63;1.97;;;;;;;;;;4937168;29;20408;-66
2022/06/13 11:33:55;;;;;;;5.03;1.70;;;;;;;;;;4937119;29;20450;-66
2022/06/13 11:36:23;;;;;;;3.67;2.03;;;;;;;;;;4935913;29;20436;-66
2022/06/13 11:38:52;;;;;;;1.97;1.80;;;;;;;;;;4937029;29;20431;-67
2022/06/13 11:41:23;;;;;;;1.97;1.50;;;;;;;;;;4936934;29;20475;-67
2022/06/13 11:43:52;;;;;;;3.23;1.83;;;;;;;;;;4936901;29;20848;-66
2022/06/13 11:46:24;;;;;;;2.43;2.00;;;;;;;;;;4936984;29;20422;-66
2022/06/13 11:48:50;;;;;;;3.63;2.37;;;;;;;;;;4935548;29;20934;-66
2022/06/13 11:51:21;;;;;;;5.20;2.23;;;;;;;;;;4936804;29;20416;-67
2022/06/13 11:53:47;;;;;;;2.77;2.30;;;;;;;;;;4935494;29;20896;-67
2022/06/13 11:56:22;;;;;;;4.47;2.33;;;;;;;;;;4936708;29;20506;-67
2022/06/13 11:58:49;;;;;;;2.43;2.20;;;;;;;;;;4936161;29;20430;-67
2022/06/13 12:01:19;;;;;;;2.17;2.07;;;;;;;;;;4936605;29;20483;-66
2022/06/13 12:03:58;;;;;;;5.07;2.60;;;;;;;;;;4936632;29;20412;-67
2022/06/13 12:06:24;;;;;;;1.90;1.63;;;;;;;;;;4936587;29;20562;-66
2022/06/13 12:08:51;;;;;;;2.93;2.13;;;;;;;;;;4936806;29;20532;-66
2022/06/13 12:11:17;;;;;;;2.10;2.00;;;;;;;;;;4936541;29;20411;-66
2022/06/13 12:13:44;;;;;;;4.67;2.13;;;;;;;;;;4936467;29;20410;-67
2022/06/13 12:16:16;;;;;;;2.30;1.90;;;;;;;;;;4935381;29;20432;-66
2022/06/13 12:19:01;;;;;;;3.77;1.63;;;;;;;;;;4936703;29;20423;-67
2022/06/13 12:21:27;;;;;;;3.40;2.03;;;;;;;;;;4936628;29;20523;-69
2022/06/13 12:23:58;;;;;;;2.80;1.80;;;;;;;;;;4936281;29;20412;-67
2022/06/13 12:26:32;;;;;;;5.00;2.03;;;;;;;;;;4936375;29;20169;-68
2022/06/13 12:29:16;;;;;;;1.70;1.70;;;;;;;;;;4936360;29;20413;-68
2022/06/13 12:32:03;;;;;;;3.83;1.90;;;;;;;;;;4936113;29;20464;-67
2022/06/13 12:34:48;;;;;;;1.77;1.67;;;;;;;;;;4935949;29;20427;-68
2022/06/13 12:37:26;;;;;;;3.80;2.07;;;;;;;;;;4936029;29;20907;-66
2022/06/13 12:39:56;;;;;;;2.33;1.83;;;;;;;;;;4935827;29;20490;-67
2022/06/13 12:42:39;;;;;;;3.23;2.00;;;;;;;;;;4936208;29;20421;-66
2022/06/13 12:45:24;;;;;;;1.50;1.37;;;;;;;;;;4936356;29;20423;-67
2022/06/13 12:47:50;;;;;;;1.80;1.63;;;;;;;;;;4936275;29;20795;-67
2022/06/13 12:50:28;;;;;;;3.17;1.97;;;;;;;;;;4936247;29;20504;-67
2022/06/13 12:52:57;;;;;;;1.80;1.70;;;;;;;;;;4936089;29;20405;-67
2022/06/13 12:55:42;;;;;;;3.40;1.93;;;;;;;;;;4936087;29;20417;-66
2022/06/13 12:58:17;;;;;;;1.70;1.60;;;;;;;;;;4936042;29;20892;-66
2022/06/13 13:00:50;;;;;;;2.27;2.07;;;;;;;;;;4936291;29;21015;-66
2022/06/13 13:03:17;;;;;;;3.67;2.10;;;;;;;;;;4935942;29;20415;-65
2022/06/13 13:06:06;;;;;;;1.93;1.83;;;;;;;;;;4936088;29;20828;-67
2022/06/13 13:08:41;;;;;;;10.70;1.40;;;;;;;;;;4928189;29;20849;-66
2022/06/13 13:11:16;;;;;;;2.27;1.57;;;;;;;;;;4939434;29;20467;-66
2022/06/13 13:13:45;;;;;;;3.23;1.33;;;;;;;;;;4939758;29;20812;-65
2022/06/13 13:16:11;;;;;;;1.90;1.77;;;;;;;;;;4939684;29;20405;-66
2022/06/13 13:19:06;;;;;;;3.20;1.63;;;;;;;;;;4939557;29;20472;-65
2022/06/13 13:21:58;;;;;;;1.83;1.73;;;;;;;;;;4888144;29;20241;-66
2022/06/13 13:24:27;;;;;;;1.93;1.70;;;;;;;;;;4935593;29;20423;-66
2022/06/13 13:26:56;;;;;;;1.70;1.60;;;;;;;;;;4939440;29;20428;-65
2022/06/13 13:29:30;;;;;;;1.80;1.70;;;;;;;;;;4938174;29;20453;-65
2022/06/13 13:32:08;;;;;;;1.77;1.67;;;;;;;;;;4939212;29;20478;-65
2022/06/13 13:34:53;;;;;;;4.63;1.93;;;;;;;;;;4939245;29;20412;-65
2022/06/13 13:37:32;;;;;;;6.83;1.70;;;;;;;;;;4939243;29;20408;-66
2022/06/13 13:40:00;;;;;;;1.70;1.60;;;;;;;;;;4939082;29;20546;-66
2022/06/13 13:42:31;;;;;;;3.50;1.90;;;;;;;;;;4939448;29;20512;-65
2022/06/13 13:45:21;;;;;;;5.50;2.23;;;;;;;;;;4939356;29;20540;-66
2022/06/13 13:47:49;;;;;;;6.10;1.90;;;;;;;;;;4931282;29;20887;-66
2022/06/13 13:50:17;;;;;;;4.63;1.83;;;;;;;;;;4939086;29;20412;-65
2022/06/13 13:52:47;;;;;;;2.40;1.40;;;;;;;;;;4938917;29;20497;-65
2022/06/13 13:55:15;;;;;;;1.90;1.73;;;;;;;;;;4938820;29;20503;-66
2022/06/13 13:57:47;;;;;;;1.87;1.77;;;;;;;;;;4938974;29;20417;-66
2022/06/13 14:00:18;;;;;;;1.90;1.53;;;;;;;;;;4938842;29;20955;-66
2022/06/13 14:02:47;;;;;;;3.00;1.70;;;;;;;;;;4938812;29;20420;-65
2022/06/13 14:05:32;;;;;;;2.30;1.43;;;;;;;;;;4938765;29;20472;-66
2022/06/13 14:08:03;;;;;;;1.57;1.47;;;;;;;;;;4938763;29;20416;-65
2022/06/13 14:10:30;;;;;;;1.93;1.83;;;;;;;;;;4938625;29;20456;-66
2022/06/13 14:13:06;;;;;;;1.40;1.27;;;;;;;;;;4938528;29;20415;-66
2022/06/13 14:15:50;;;;;;;3.77;1.40;;;;;;;;;;4938646;29;20408;-66
2022/06/13 14:18:21;;;;;;;4.03;1.73;;;;;;;;;;4938496;29;20769;-67
2022/06/13 14:20:48;;;;;;;1.23;1.23;;;;;;;;;;4937910;29;20476;-66
2022/06/13 14:23:24;;;;;;;1.63;1.53;;;;;;;;;;4938368;29;20427;-66
2022/06/13 14:25:51;;;;;;;2.50;1.97;;;;;;;;;;4938521;29;20415;-67
2022/06/13 14:28:18;;;;;;;3.63;1.40;;;;;;;;;;4938387;29;20440;-65
2022/06/13 14:31:06;;;;;;;1.43;1.33;;;;;;;;;;4938469;29;20404;-65
2022/06/13 14:36:49;;;;;;;4.67;1.50;;;;;;;;;;4938258;29;20419;-66
2022/06/13 14:39:30;;;;;;;2.80;1.33;;;;;;;;;;4938187;29;20420;-65
2022/06/13 14:42:07;;;;;;;1.63;1.53;;;;;;;;;;4938115;29;20519;-66
2022/06/13 14:44:51;;;;;;;1.93;1.23;;;;;;;;;;4938169;29;20499;-64
2022/06/13 14:47:24;;;;;;;2.20;1.10;;;;;;;;;;4938027;29;20413;-65
2022/06/13 14:49:54;;;;;;;1.57;1.43;;;;;;;;;;4937961;29;20412;-66
2022/06/13 14:52:22;;;;;;;2.20;1.40;;;;;;;;;;4936701;29;20983;-66
2022/06/13 14:55:10;;;;;;;1.70;1.60;;;;;;;;;;4937849;29;20420;-65
2022/06/13 14:57:36;;;;;;;3.70;1.70;;;;;;;;;;4937862;29;20413;-64
2022/06/13 15:00:17;;;;;;;1.70;1.60;;;;;;;;;;4937755;29;20965;-65
2022/06/13 15:03:01;;;;;;;1.73;1.63;;;;;;;;;;4937878;29;20404;-65
2022/06/13 15:05:30;;;;;;;1.80;1.20;;;;;;;;;;4937709;29;20416;-65
2022/06/13 15:08:04;;;;;;;1.70;1.50;;;;;;;;;;4937641;29;20409;-65
2022/06/13 15:10:34;;;;;;;4.73;1.77;;;;;;;;;;4937628;29;20942;-65
2022/06/13 15:13:01;;;;;;;1.60;1.50;;;;;;;;;;4936366;29;20790;-67
2022/06/13 15:15:31;;;;;;;2.70;1.40;;;;;;;;;;4937454;29;20896;-65
2022/06/13 15:17:57;;;;;;;2.70;2.13;;;;;;;;;;4937491;29;20421;-65
2022/06/13 15:20:42;;;;;;;2.30;1.60;;;;;;;;;;4937392;29;20456;-66
2022/06/13 15:23:17;;;;;;;1.77;1.67;;;;;;;;;;4937376;29;20412;-65
2022/06/13 15:25:48;;;;;;;1.70;1.60;;;;;;;;;;4937288;29;20420;-65
2022/06/13 15:28:16;;;;;;;2.93;2.37;;;;;;;;;;4937345;29;20416;-65